Time;durP1;ratioP1;P1;durP2;ratioP2;P2;SDS_P1;SDS_P2;PMS_P1;PMS_P2;Temp;Humidity;BMP_temperature;BMP_pressure;BME280_temperature;BME280_humidity;BME280_pressure;Samples;Min_cycle;Max_cycle;Signal;HPM_P1;HPM_P2
2023/05/14 00:00:03;;;;;;;13.02;11.73;;;;;;;;;;5009602;28;20149;-76
2023/05/14 00:02:30;;;;;;;13.32;11.52;;;;;;;;;;5009655;28;20054;-77
2023/05/14 00:04:56;;;;;;;13.88;12.18;;;;;;;;;;5009507;28;20812;-76
2023/05/14 00:07:29;;;;;;;14.27;11.65;;;;;;;;;;4993636;28;20056;-75
2023/05/14 00:09:57;;;;;;;13.20;10.50;;;;;;;;;;5009617;28;20137;-76
2023/05/14 00:12:25;;;;;;;14.02;11.43;;;;;;;;;;4977492;28;20175;-76
2023/05/14 00:14:52;;;;;;;12.77;11.48;;;;;;;;;;5009575;28;20070;-76
2023/05/14 00:17:19;;;;;;;13.02;11.70;;;;;;;;;;5025076;28;20107;-76
2023/05/14 00:19:46;;;;;;;14.23;12.57;;;;;;;;;;4993033;28;20137;-76
2023/05/14 00:22:12;;;;;;;14.07;12.60;;;;;;;;;;5009295;28;20129;-76
2023/05/14 00:24:39;;;;;;;14.30;12.57;;;;;;;;;;5009277;28;20056;-77
2023/05/14 00:27:06;;;;;;;14.55;12.98;;;;;;;;;;4993423;28;20050;-77
2023/05/14 00:29:33;;;;;;;15.00;11.90;;;;;;;;;;4989950;28;20554;-77
2023/05/14 00:31:59;;;;;;;14.25;12.80;;;;;;;;;;5007360;28;20057;-77
2023/05/14 00:34:26;;;;;;;12.90;11.43;;;;;;;;;;4990417;28;20503;-79
2023/05/14 00:36:53;;;;;;;14.05;12.55;;;;;;;;;;4986599;28;20054;-80
2023/05/14 00:39:20;;;;;;;14.77;12.57;;;;;;;;;;4984501;28;20085;-81
2023/05/14 00:41:46;;;;;;;13.23;11.82;;;;;;;;;;5001404;28;20090;-81
2023/05/14 00:44:13;;;;;;;13.32;11.52;;;;;;;;;;4981060;28;20137;-81
2023/05/14 00:46:42;;;;;;;15.40;12.43;;;;;;;;;;4997385;28;20146;-79
2023/05/14 00:49:09;;;;;;;15.55;13.57;;;;;;;;;;4981895;28;20051;-81
2023/05/14 00:51:36;;;;;;;18.42;13.27;;;;;;;;;;4996798;28;20499;-81
2023/05/14 00:54:03;;;;;;;14.68;12.93;;;;;;;;;;4998214;28;20064;-82
2023/05/14 00:56:30;;;;;;;14.93;13.38;;;;;;;;;;5017243;28;20512;-83
2023/05/14 00:58:57;;;;;;;13.65;12.35;;;;;;;;;;4997081;28;20058;-79
2023/05/14 01:01:27;;;;;;;15.38;13.00;;;;;;;;;;5013205;28;20093;-80
2023/05/14 01:03:56;;;;;;;14.02;12.52;;;;;;;;;;4983992;28;20509;-81
2023/05/14 01:06:34;;;;;;;15.57;11.88;;;;;;;;;;5002538;28;20132;-79
2023/05/14 01:09:18;;;;;;;15.60;11.98;;;;;;;;;;5001145;28;20058;-80
2023/05/14 01:11:58;;;;;;;15.32;13.07;;;;;;;;;;4998997;28;20097;-79
2023/05/14 01:14:28;;;;;;;13.70;12.30;;;;;;;;;;5017242;28;20502;-79
2023/05/14 01:16:56;;;;;;;13.70;12.30;;;;;;;;;;5016602;28;20133;-79
2023/05/14 01:19:42;;;;;;;12.02;10.82;;;;;;;;;;5001538;28;20053;-79
2023/05/14 01:22:10;;;;;;;13.88;11.80;;;;;;;;;;5002412;28;20065;-79
2023/05/14 01:24:37;;;;;;;13.80;11.85;;;;;;;;;;4984635;28;20053;-78
2023/05/14 01:27:16;;;;;;;15.77;12.18;;;;;;;;;;5000775;28;20049;-78
2023/05/14 01:29:48;;;;;;;15.27;13.25;;;;;;;;;;4991897;28;20047;-78
2023/05/14 01:32:15;;;;;;;14.13;12.73;;;;;;;;;;4965319;28;20058;-79
2023/05/14 01:34:42;;;;;;;14.43;12.73;;;;;;;;;;4982088;28;20080;-78
2023/05/14 01:37:08;;;;;;;14.15;12.82;;;;;;;;;;4980893;28;20046;-79
2023/05/14 01:39:36;;;;;;;14.70;13.20;;;;;;;;;;4989920;28;20061;-79
2023/05/14 01:42:04;;;;;;;14.60;13.10;;;;;;;;;;4997197;28;20050;-79
2023/05/14 01:44:32;;;;;;;15.38;12.82;;;;;;;;;;4977041;28;20058;-77
2023/05/14 01:46:59;;;;;;;15.38;13.70;;;;;;;;;;4992128;28;20121;-77
2023/05/14 01:49:26;;;;;;;14.75;13.23;;;;;;;;;;4991156;28;20505;-77
2023/05/14 01:51:53;;;;;;;13.77;12.27;;;;;;;;;;4993983;28;20064;-78
2023/05/14 01:54:19;;;;;;;15.10;13.45;;;;;;;;;;5008318;28;20564;-78
2023/05/14 01:56:46;;;;;;;16.00;13.32;;;;;;;;;;4995196;28;20049;-78
2023/05/14 01:59:13;;;;;;;14.93;13.00;;;;;;;;;;5011365;28;20057;-78
2023/05/14 02:01:40;;;;;;;15.32;13.10;;;;;;;;;;5011157;28;20417;-78
2023/05/14 02:04:06;;;;;;;15.40;13.10;;;;;;;;;;5011590;28;20056;-78
2023/05/14 02:06:33;;;;;;;15.27;12.93;;;;;;;;;;4999505;28;20049;-79
2023/05/14 02:09:01;;;;;;;14.43;12.07;;;;;;;;;;5016628;28;20137;-79
2023/05/14 02:11:27;;;;;;;15.30;13.65;;;;;;;;;;4998878;28;20053;-78
2023/05/14 02:13:54;;;;;;;15.52;12.80;;;;;;;;;;4996333;28;20057;-78
2023/05/14 02:16:21;;;;;;;13.77;12.32;;;;;;;;;;5011589;28;20050;-78
2023/05/14 02:18:48;;;;;;;23.42;12.32;;;;;;;;;;5012342;28;20690;-82
2023/05/14 02:21:15;;;;;;;14.13;12.63;;;;;;;;;;4999414;28;20065;-83
2023/05/14 02:23:43;;;;;;;14.05;12.30;;;;;;;;;;5015517;28;20056;-78
2023/05/14 02:26:10;;;;;;;14.07;12.55;;;;;;;;;;5014851;28;20054;-78
2023/05/14 02:28:37;;;;;;;13.20;11.90;;;;;;;;;;5015696;28;20244;-76
2023/05/14 02:31:03;;;;;;;13.23;11.90;;;;;;;;;;4994954;28;20060;-80
2023/05/14 02:33:30;;;;;;;14.52;13.00;;;;;;;;;;4996016;28;20143;-80
2023/05/14 02:35:57;;;;;;;12.15;10.85;;;;;;;;;;4979991;28;20057;-80
2023/05/14 02:38:25;;;;;;;13.23;11.60;;;;;;;;;;4996442;28;20049;-79
2023/05/14 02:40:51;;;;;;;12.90;11.35;;;;;;;;;;4980651;28;20053;-79
2023/05/14 02:43:18;;;;;;;13.65;11.80;;;;;;;;;;5011660;28;20126;-79
2023/05/14 02:45:45;;;;;;;13.75;11.07;;;;;;;;;;4995980;28;20060;-78
2023/05/14 02:48:11;;;;;;;11.88;10.68;;;;;;;;;;4996648;28;20473;-79
2023/05/14 02:50:38;;;;;;;12.02;10.48;;;;;;;;;;5013133;28;20061;-78
2023/05/14 02:53:05;;;;;;;11.02;9.82;;;;;;;;;;4997765;28;20065;-79
2023/05/14 02:55:32;;;;;;;15.13;11.18;;;;;;;;;;4982098;28;20058;-78
2023/05/14 02:57:59;;;;;;;11.68;10.02;;;;;;;;;;5010831;28;20501;-76
2023/05/14 03:00:25;;;;;;;11.55;10.30;;;;;;;;;;5016370;28;20057;-77
2023/05/14 03:02:52;;;;;;;11.82;10.00;;;;;;;;;;5031503;28;20033;-79
2023/05/14 03:05:20;;;;;;;13.95;9.00;;;;;;;;;;5002265;28;20054;-78
2023/05/14 03:07:46;;;;;;;11.80;10.07;;;;;;;;;;5030718;28;20065;-78
2023/05/14 03:10:13;;;;;;;9.77;8.82;;;;;;;;;;5022223;28;20064;-79
2023/05/14 03:12:40;;;;;;;11.60;9.95;;;;;;;;;;5011642;28;20049;-79
2023/05/14 03:15:08;;;;;;;11.77;10.23;;;;;;;;;;5018774;28;20111;-79
2023/05/14 03:17:35;;;;;;;10.73;9.20;;;;;;;;;;4995908;28;20383;-81
2023/05/14 03:20:02;;;;;;;12.90;10.63;;;;;;;;;;4998388;28;20058;-81
2023/05/14 03:22:29;;;;;;;12.02;9.75;;;;;;;;;;4994292;28;20085;-79
2023/05/14 03:24:55;;;;;;;11.65;9.55;;;;;;;;;;5010557;28;20517;-80
2023/05/14 03:27:22;;;;;;;11.40;9.50;;;;;;;;;;4994128;28;20060;-79
2023/05/14 03:29:49;;;;;;;12.18;9.30;;;;;;;;;;5010390;28;20569;-78
2023/05/14 03:32:16;;;;;;;11.35;9.73;;;;;;;;;;5011012;28;20062;-78
2023/05/14 03:34:43;;;;;;;12.88;9.20;;;;;;;;;;4978533;28;20504;-78
2023/05/14 03:37:10;;;;;;;10.93;9.30;;;;;;;;;;4978475;28;20060;-79
2023/05/14 03:39:37;;;;;;;10.13;8.85;;;;;;;;;;4994301;28;20054;-79
2023/05/14 03:42:04;;;;;;;13.07;9.25;;;;;;;;;;4993931;28;20058;-78
2023/05/14 03:44:30;;;;;;;11.43;9.40;;;;;;;;;;4994837;28;20060;-79
2023/05/14 03:46:57;;;;;;;11.70;9.25;;;;;;;;;;5010319;28;20062;-78
2023/05/14 03:49:24;;;;;;;13.43;9.60;;;;;;;;;;4994107;28;20054;-79
2023/05/14 03:51:51;;;;;;;10.63;8.70;;;;;;;;;;5010013;28;20140;-77
2023/05/14 03:54:17;;;;;;;12.38;8.40;;;;;;;;;;5010314;28;20093;-79
2023/05/14 03:56:44;;;;;;;9.70;8.68;;;;;;;;;;5010254;28;20433;-78
2023/05/14 03:59:11;;;;;;;10.45;9.15;;;;;;;;;;4994493;28;20096;-78
2023/05/14 04:01:38;;;;;;;13.25;10.50;;;;;;;;;;4994152;28;20125;-78
2023/05/14 04:04:05;;;;;;;11.25;8.95;;;;;;;;;;4993826;28;20054;-79
2023/05/14 04:06:32;;;;;;;10.77;9.18;;;;;;;;;;5003855;28;20050;-79
2023/05/14 04:08:59;;;;;;;10.35;9.25;;;;;;;;;;4958695;28;20502;-79
2023/05/14 04:11:26;;;;;;;12.18;9.50;;;;;;;;;;4958413;28;20061;-78
2023/05/14 04:13:52;;;;;;;12.98;9.68;;;;;;;;;;4998154;28;20133;-81
2023/05/14 04:16:19;;;;;;;11.85;10.45;;;;;;;;;;4996443;28;20574;-80
2023/05/14 04:18:46;;;;;;;12.38;10.23;;;;;;;;;;4964467;28;20057;-79
2023/05/14 04:21:13;;;;;;;13.88;11.18;;;;;;;;;;4978850;28;20054;-79
2023/05/14 04:23:40;;;;;;;15.18;12.70;;;;;;;;;;4994767;28;20062;-80
2023/05/14 04:26:06;;;;;;;10.10;8.50;;;;;;;;;;4995210;28;20050;-79
2023/05/14 04:28:33;;;;;;;10.75;9.45;;;;;;;;;;4980424;28;20475;-78
2023/05/14 04:31:00;;;;;;;9.68;8.68;;;;;;;;;;4981734;28;20054;-80
2023/05/14 04:33:26;;;;;;;8.98;8.10;;;;;;;;;;4998121;28;20415;-81
2023/05/14 04:35:53;;;;;;;10.05;8.65;;;;;;;;;;4966096;28;20089;-80
2023/05/14 04:38:20;;;;;;;11.13;8.65;;;;;;;;;;5017194;28;20053;-77
2023/05/14 04:40:47;;;;;;;8.00;7.20;;;;;;;;;;4998751;28;20041;-78
2023/05/14 04:43:15;;;;;;;9.57;8.02;;;;;;;;;;5018014;28;20069;-81
2023/05/14 04:45:41;;;;;;;9.55;7.85;;;;;;;;;;5015086;28;20509;-80
2023/05/14 04:48:08;;;;;;;10.45;8.40;;;;;;;;;;5013892;28;20077;-78
2023/05/14 04:50:35;;;;;;;11.15;7.97;;;;;;;;;;4997218;28;20053;-78
2023/05/14 04:53:02;;;;;;;9.77;8.77;;;;;;;;;;4997769;28;20133;-78
2023/05/14 04:55:29;;;;;;;9.90;8.38;;;;;;;;;;4996692;28;20510;-78
2023/05/14 04:57:55;;;;;;;9.30;8.30;;;;;;;;;;4999737;28;20064;-78
2023/05/14 05:00:22;;;;;;;9.30;7.85;;;;;;;;;;4999713;28;20516;-78
2023/05/14 05:02:50;;;;;;;8.35;7.55;;;;;;;;;;4992299;28;20070;-78
2023/05/14 05:05:16;;;;;;;9.10;8.05;;;;;;;;;;4985032;28;20054;-80
2023/05/14 05:07:43;;;;;;;10.05;7.32;;;;;;;;;;4985263;28;20058;-79
2023/05/14 05:10:10;;;;;;;10.00;7.47;;;;;;;;;;4998375;28;20050;-82
2023/05/14 05:12:37;;;;;;;8.73;7.60;;;;;;;;;;4965720;28;20141;-82
2023/05/14 05:15:04;;;;;;;10.05;7.85;;;;;;;;;;4988157;28;20095;-79
2023/05/14 05:17:31;;;;;;;9.45;7.47;;;;;;;;;;4999717;28;20064;-79
2023/05/14 05:19:58;;;;;;;11.32;8.68;;;;;;;;;;5012992;28;20076;-78
2023/05/14 05:22:25;;;;;;;10.10;8.52;;;;;;;;;;4997819;28;20405;-78
2023/05/14 05:24:52;;;;;;;10.15;8.55;;;;;;;;;;4981433;28;20057;-78
2023/05/14 05:27:20;;;;;;;9.20;8.20;;;;;;;;;;4999422;28;20432;-79
2023/05/14 05:29:53;;;;;;;9.75;8.55;;;;;;;;;;4999349;28;20072;-79
2023/05/14 05:32:22;;;;;;;11.27;9.00;;;;;;;;;;5021227;28;20057;-77
2023/05/14 05:34:50;;;;;;;10.15;9.15;;;;;;;;;;4998870;28;20054;-78
2023/05/14 05:37:17;;;;;;;10.63;8.07;;;;;;;;;;4982994;28;20054;-78
2023/05/14 05:39:44;;;;;;;9.18;8.02;;;;;;;;;;5013135;28;20046;-79
2023/05/14 05:42:11;;;;;;;8.98;8.10;;;;;;;;;;5013396;28;20065;-78
2023/05/14 05:44:37;;;;;;;12.13;8.68;;;;;;;;;;5013441;28;20095;-80
2023/05/14 05:47:04;;;;;;;11.63;9.25;;;;;;;;;;5014115;28;20061;-78
2023/05/14 05:49:31;;;;;;;8.43;7.60;;;;;;;;;;5012065;28;20046;-78
2023/05/14 05:51:58;;;;;;;9.05;8.15;;;;;;;;;;5002862;28;20060;-78
2023/05/14 05:54:31;;;;;;;9.95;8.77;;;;;;;;;;5002072;28;20064;-78
2023/05/14 05:56:58;;;;;;;13.57;8.18;;;;;;;;;;5015514;28;20521;-78
2023/05/14 05:59:25;;;;;;;10.82;8.57;;;;;;;;;;5032488;28;20060;-77
2023/05/14 06:01:52;;;;;;;9.10;7.60;;;;;;;;;;5015256;28;20054;-77
2023/05/14 06:04:19;;;;;;;9.48;8.13;;;;;;;;;;5010799;28;20046;-78
2023/05/14 06:06:46;;;;;;;10.32;8.20;;;;;;;;;;4999528;28;20049;-81
2023/05/14 06:09:12;;;;;;;9.02;8.00;;;;;;;;;;4980746;28;20058;-79
2023/05/14 06:11:39;;;;;;;8.13;7.32;;;;;;;;;;5016238;28;20054;-78
2023/05/14 06:14:06;;;;;;;9.88;7.53;;;;;;;;;;5015221;28;20425;-79
2023/05/14 06:16:33;;;;;;;9.98;7.60;;;;;;;;;;4982597;28;20056;-78
2023/05/14 06:19:00;;;;;;;8.93;8.00;;;;;;;;;;4998822;28;20061;-79
2023/05/14 06:21:27;;;;;;;9.10;7.35;;;;;;;;;;5014491;28;20134;-78
2023/05/14 06:23:54;;;;;;;8.10;7.20;;;;;;;;;;5012264;28;20057;-78
2023/05/14 06:26:21;;;;;;;8.18;7.43;;;;;;;;;;4995245;28;20054;-78
2023/05/14 06:28:48;;;;;;;8.02;7.22;;;;;;;;;;4995063;28;20133;-78
2023/05/14 06:31:14;;;;;;;10.35;7.85;;;;;;;;;;4996711;28;20064;-80
2023/05/14 06:33:41;;;;;;;7.45;6.75;;;;;;;;;;5014901;28;20054;-79
2023/05/14 06:36:08;;;;;;;8.35;7.40;;;;;;;;;;4996212;28;20100;-79
2023/05/14 06:38:35;;;;;;;9.27;7.13;;;;;;;;;;4981287;28;20057;-76
2023/05/14 06:41:02;;;;;;;8.93;7.22;;;;;;;;;;4994259;28;20053;-76
2023/05/14 06:43:29;;;;;;;8.02;7.22;;;;;;;;;;4995569;28;20418;-77
2023/05/14 06:45:55;;;;;;;8.48;7.30;;;;;;;;;;5011849;28;20056;-79
2023/05/14 06:48:22;;;;;;;8.48;7.57;;;;;;;;;;4999398;28;20049;-78
2023/05/14 06:50:49;;;;;;;8.13;7.22;;;;;;;;;;5013911;28;20139;-77
2023/05/14 06:53:16;;;;;;;7.50;6.70;;;;;;;;;;5010953;28;20050;-76
2023/05/14 06:55:43;;;;;;;8.57;7.03;;;;;;;;;;4993219;28;20057;-75
2023/05/14 06:58:10;;;;;;;7.68;6.88;;;;;;;;;;5009205;28;20088;-75
2023/05/14 07:00:37;;;;;;;9.57;7.20;;;;;;;;;;5009133;28;20088;-75
2023/05/14 07:03:04;;;;;;;8.88;7.25;;;;;;;;;;5009270;28;20060;-76
2023/05/14 07:05:31;;;;;;;7.88;7.07;;;;;;;;;;5009031;28;20062;-74
2023/05/14 07:07:57;;;;;;;7.93;7.13;;;;;;;;;;4993131;28;20550;-75
2023/05/14 07:10:24;;;;;;;7.20;6.50;;;;;;;;;;5009039;28;20096;-75
2023/05/14 07:12:51;;;;;;;9.13;6.43;;;;;;;;;;4993316;28;20708;-84
2023/05/14 07:15:18;;;;;;;7.43;6.68;;;;;;;;;;4979194;28;20129;-81
2023/05/14 07:17:45;;;;;;;8.65;7.20;;;;;;;;;;5010060;28;20131;-80
2023/05/14 07:20:12;;;;;;;10.05;7.43;;;;;;;;;;4992868;28;20050;-81
2023/05/14 07:22:39;;;;;;;8.05;7.28;;;;;;;;;;5004456;28;20054;-81
2023/05/14 07:25:06;;;;;;;7.65;6.85;;;;;;;;;;4981125;28;20050;-81
2023/05/14 07:27:33;;;;;;;7.50;6.78;;;;;;;;;;5009794;28;20053;-81
2023/05/14 07:30:00;;;;;;;9.50;7.80;;;;;;;;;;4996914;28;20061;-80
2023/05/14 07:32:27;;;;;;;7.15;6.30;;;;;;;;;;5013196;28;20046;-80
2023/05/14 07:34:53;;;;;;;7.30;6.50;;;;;;;;;;5012588;28;20112;-80
2023/05/14 07:37:21;;;;;;;7.60;6.90;;;;;;;;;;5013565;28;20057;-80
2023/05/14 07:39:49;;;;;;;10.43;6.97;;;;;;;;;;4997451;28;20239;-80
2023/05/14 07:42:17;;;;;;;7.78;7.00;;;;;;;;;;5001029;28;20053;-81
2023/05/14 07:45:01;;;;;;;7.88;7.07;;;;;;;;;;5027651;28;20626;-81
2023/05/14 07:47:28;;;;;;;9.60;7.13;;;;;;;;;;5006452;28;20076;-79
2023/05/14 07:49:56;;;;;;;7.40;6.65;;;;;;;;;;4999515;28;20054;-78
2023/05/14 07:52:23;;;;;;;7.70;6.82;;;;;;;;;;4998714;28;20490;-78
2023/05/14 07:54:50;;;;;;;7.15;6.45;;;;;;;;;;5014880;28;20062;-78
2023/05/14 07:57:18;;;;;;;7.68;6.82;;;;;;;;;;4985100;28;20550;-79
2023/05/14 07:59:45;;;;;;;7.65;6.45;;;;;;;;;;4981016;28;20490;-77
2023/05/14 08:02:15;;;;;;;8.45;6.45;;;;;;;;;;4983808;28;20060;-81
2023/05/14 08:04:42;;;;;;;7.63;6.53;;;;;;;;;;4993825;28;20058;-76
2023/05/14 08:07:09;;;;;;;7.28;5.82;;;;;;;;;;5008132;28;20514;-77
2023/05/14 08:09:36;;;;;;;7.18;5.45;;;;;;;;;;5013129;28;20052;-76
2023/05/14 08:12:03;;;;;;;8.32;6.63;;;;;;;;;;5013721;28;20066;-76
2023/05/14 08:14:30;;;;;;;7.70;6.90;;;;;;;;;;4995041;28;20058;-76
2023/05/14 08:16:57;;;;;;;8.43;7.03;;;;;;;;;;5015408;28;20056;-77
2023/05/14 08:19:26;;;;;;;7.75;6.95;;;;;;;;;;5013719;28;20046;-77
2023/05/14 08:21:53;;;;;;;8.88;7.15;;;;;;;;;;4997568;28;20050;-77
2023/05/14 08:24:19;;;;;;;7.95;7.15;;;;;;;;;;4997463;28;20057;-78
2023/05/14 08:26:46;;;;;;;7.72;6.85;;;;;;;;;;5013482;28;20495;-77
2023/05/14 08:29:13;;;;;;;7.57;6.88;;;;;;;;;;5013646;28;20142;-77
2023/05/14 08:31:42;;;;;;;8.27;7.00;;;;;;;;;;5013026;28;20476;-77
2023/05/14 08:34:09;;;;;;;8.48;7.63;;;;;;;;;;5013061;28;20088;-75
2023/05/14 08:36:36;;;;;;;9.68;7.90;;;;;;;;;;4996881;28;20054;-77
2023/05/14 08:39:03;;;;;;;8.77;6.95;;;;;;;;;;4996697;28;20145;-77
2023/05/14 08:41:30;;;;;;;7.10;6.38;;;;;;;;;;4996578;28;20068;-77
2023/05/14 08:44:09;;;;;;;10.15;7.13;;;;;;;;;;4996834;28;20054;-77
2023/05/14 08:46:37;;;;;;;13.05;7.18;;;;;;;;;;4997145;28;20064;-77
2023/05/14 08:49:21;;;;;;;9.38;6.88;;;;;;;;;;5013181;28;20534;-77
2023/05/14 08:51:48;;;;;;;8.50;7.60;;;;;;;;;;5013724;28;20054;-77
2023/05/14 08:54:18;;;;;;;7.00;6.30;;;;;;;;;;5015028;28;20073;-77
2023/05/14 08:56:47;;;;;;;7.32;6.47;;;;;;;;;;4999896;28;20049;-76
2023/05/14 08:59:17;;;;;;;9.18;7.07;;;;;;;;;;5002421;28;20050;-76
2023/05/14 09:01:46;;;;;;;8.65;7.85;;;;;;;;;;5000305;28;20069;-76
2023/05/14 09:04:15;;;;;;;7.30;6.50;;;;;;;;;;4999684;28;20100;-77
2023/05/14 09:06:42;;;;;;;8.70;7.32;;;;;;;;;;4999098;28;20068;-77
2023/05/14 09:09:09;;;;;;;7.85;7.05;;;;;;;;;;4997700;28;20058;-76
2023/05/14 09:11:44;;;;;;;9.10;8.00;;;;;;;;;;4996814;28;20049;-77
2023/05/14 09:14:11;;;;;;;10.48;8.00;;;;;;;;;;4981182;28;20054;-77
2023/05/14 09:16:39;;;;;;;8.27;7.13;;;;;;;;;;4980254;28;20056;-76
2023/05/14 09:19:06;;;;;;;7.85;7.05;;;;;;;;;;4996310;28;20058;-77
2023/05/14 09:21:33;;;;;;;8.80;7.53;;;;;;;;;;5012060;28;20057;-77
2023/05/14 09:24:00;;;;;;;7.57;6.88;;;;;;;;;;4996512;28;20065;-76
2023/05/14 09:26:27;;;;;;;8.48;7.45;;;;;;;;;;4996253;28;20054;-77
2023/05/14 09:29:00;;;;;;;8.20;7.38;;;;;;;;;;4979492;28;20050;-77
2023/05/14 09:31:32;;;;;;;8.82;7.72;;;;;;;;;;5012059;28;20422;-77
2023/05/14 09:33:59;;;;;;;8.65;7.40;;;;;;;;;;4980086;28;20054;-77
2023/05/14 09:36:26;;;;;;;10.25;6.95;;;;;;;;;;4995732;28;20065;-77
2023/05/14 09:38:55;;;;;;;8.40;7.53;;;;;;;;;;5011990;28;20104;-77
2023/05/14 09:41:23;;;;;;;9.15;7.40;;;;;;;;;;5011797;28;20053;-77
2023/05/14 09:43:50;;;;;;;7.75;6.93;;;;;;;;;;5012080;28;20136;-77
2023/05/14 09:46:17;;;;;;;8.30;6.72;;;;;;;;;;5001607;28;20053;-77
2023/05/14 09:48:44;;;;;;;7.80;6.45;;;;;;;;;;4996080;28;20129;-77
2023/05/14 09:51:12;;;;;;;7.93;7.13;;;;;;;;;;5012132;28;20138;-77
2023/05/14 09:53:40;;;;;;;7.05;6.40;;;;;;;;;;5012404;28;20103;-77
2023/05/14 09:56:06;;;;;;;7.13;6.43;;;;;;;;;;5030095;28;20507;-77
2023/05/14 09:58:33;;;;;;;7.25;6.55;;;;;;;;;;5012926;28;20505;-77
2023/05/14 10:01:01;;;;;;;7.30;6.43;;;;;;;;;;4996942;28;20053;-77
2023/05/14 10:03:29;;;;;;;6.25;5.65;;;;;;;;;;5013105;28;20053;-77
2023/05/14 10:06:00;;;;;;;7.38;5.50;;;;;;;;;;5011377;28;20060;-77
2023/05/14 10:08:29;;;;;;;7.43;5.28;;;;;;;;;;4995298;28;20057;-77
2023/05/14 10:11:03;;;;;;;6.43;5.63;;;;;;;;;;5013002;28;20077;-81
2023/05/14 10:13:33;;;;;;;6.53;5.10;;;;;;;;;;5003758;28;20050;-81
2023/05/14 10:16:23;;;;;;;8.88;4.43;;;;;;;;;;4993234;28;20054;-81
2023/05/14 10:18:53;;;;;;;6.28;5.65;;;;;;;;;;5021322;28;20121;-81
2023/05/14 10:21:23;;;;;;;7.45;6.13;;;;;;;;;;5014834;28;20089;-77
2023/05/14 10:23:50;;;;;;;5.47;4.97;;;;;;;;;;4995003;28;20061;-77
2023/05/14 10:26:16;;;;;;;7.75;5.10;;;;;;;;;;4994955;28;20062;-76
2023/05/14 10:28:43;;;;;;;6.10;5.07;;;;;;;;;;4994107;28;20553;-77
2023/05/14 10:31:10;;;;;;;5.80;5.25;;;;;;;;;;4976319;28;20079;-77
2023/05/14 10:33:49;;;;;;;8.50;5.88;;;;;;;;;;4979130;28;20128;-77
2023/05/14 10:36:19;;;;;;;6.70;5.97;;;;;;;;;;4994974;28;20054;-77
2023/05/14 10:38:46;;;;;;;7.03;6.32;;;;;;;;;;4994815;28;20058;-77
2023/05/14 10:41:15;;;;;;;6.63;5.90;;;;;;;;;;5009659;28;20081;-77
2023/05/14 10:43:42;;;;;;;9.40;6.78;;;;;;;;;;4993880;28;20084;-78
2023/05/14 10:46:10;;;;;;;7.45;6.18;;;;;;;;;;4978989;28;20343;-81
2023/05/14 10:48:39;;;;;;;6.53;5.93;;;;;;;;;;4999606;28;20053;-80
2023/05/14 10:51:10;;;;;;;6.82;6.22;;;;;;;;;;4984486;28;20046;-80
2023/05/14 10:53:38;;;;;;;9.82;5.55;;;;;;;;;;4992551;28;20053;-80
2023/05/14 10:56:07;;;;;;;6.35;5.75;;;;;;;;;;4991126;28;20058;-78
2023/05/14 10:58:36;;;;;;;5.53;5.03;;;;;;;;;;5024010;28;20050;-79
2023/05/14 11:01:04;;;;;;;5.78;4.85;;;;;;;;;;5029854;28;20046;-80
2023/05/14 11:03:37;;;;;;;5.38;4.88;;;;;;;;;;5002127;28;20553;-80
2023/05/14 11:06:04;;;;;;;;;;;;;;;;;;5021990;28;20054;-80
2023/05/14 11:08:30;;;;;;;6.30;5.70;;;;;;;;;;4999801;28;19928;-83
2023/05/14 11:10:57;;;;;;;5.63;5.03;;;;;;;;;;4980796;28;20045;-83
2023/05/14 11:13:25;;;;;;;5.65;5.13;;;;;;;;;;5001706;28;20517;-81
2023/05/14 11:15:52;;;;;;;6.05;4.97;;;;;;;;;;5015756;28;20145;-82
2023/05/14 11:18:29;;;;;;;5.03;4.53;;;;;;;;;;5003112;28;20060;-82
2023/05/14 11:21:00;;;;;;;6.28;5.22;;;;;;;;;;4997876;28;20046;-83
2023/05/14 11:23:27;;;;;;;5.60;4.97;;;;;;;;;;5013864;28;20493;-83
2023/05/14 11:25:55;;;;;;;5.90;5.10;;;;;;;;;;4986258;28;20140;-80
2023/05/14 11:28:23;;;;;;;5.68;4.47;;;;;;;;;;4999965;28;20077;-80
2023/05/14 11:30:50;;;;;;;4.68;4.28;;;;;;;;;;5000567;28;20057;-80
2023/05/14 11:33:17;;;;;;;4.85;4.35;;;;;;;;;;5001602;28;20117;-80
2023/05/14 11:35:45;;;;;;;5.38;4.63;;;;;;;;;;5017965;28;20049;-82
2023/05/14 11:38:16;;;;;;;7.63;5.75;;;;;;;;;;5001507;28;20054;-80
2023/05/14 11:40:56;;;;;;;5.00;4.50;;;;;;;;;;5016218;28;20053;-81
2023/05/14 11:43:24;;;;;;;5.65;4.90;;;;;;;;;;5016568;28;20060;-82
2023/05/14 11:45:52;;;;;;;5.10;4.60;;;;;;;;;;5001173;28;20081;-82
2023/05/14 11:48:20;;;;;;;5.35;4.30;;;;;;;;;;4999255;28;20050;-81
2023/05/14 11:50:48;;;;;;;6.95;4.28;;;;;;;;;;5013325;28;20108;-81
2023/05/14 11:53:28;;;;;;;5.90;4.10;;;;;;;;;;5016428;28;20061;-83
2023/05/14 11:55:56;;;;;;;5.72;4.60;;;;;;;;;;4999217;28;20062;-81
2023/05/14 11:58:23;;;;;;;6.00;4.35;;;;;;;;;;4998189;28;20137;-81
2023/05/14 12:00:54;;;;;;;5.03;3.90;;;;;;;;;;5014659;28;20062;-81
2023/05/14 12:03:25;;;;;;;4.10;3.80;;;;;;;;;;5001669;28;20076;-82
2023/05/14 12:05:56;;;;;;;4.25;3.85;;;;;;;;;;4995085;28;20061;-80
2023/05/14 12:08:28;;;;;;;5.28;3.70;;;;;;;;;;4993157;28;20053;-81
2023/05/14 12:10:55;;;;;;;4.28;3.60;;;;;;;;;;4983235;28;20052;-82
2023/05/14 12:13:25;;;;;;;4.10;3.80;;;;;;;;;;4981751;28;20057;-78
2023/05/14 12:15:56;;;;;;;3.60;3.30;;;;;;;;;;4995015;28;20065;-84
2023/05/14 12:18:24;;;;;;;3.80;3.50;;;;;;;;;;5012369;28;20065;-77
2023/05/14 12:20:51;;;;;;;4.25;3.00;;;;;;;;;;5008307;28;20053;-77
2023/05/14 12:23:29;;;;;;;3.35;3.05;;;;;;;;;;4992332;28;20520;-76
2023/05/14 12:26:04;;;;;;;5.15;3.38;;;;;;;;;;4992534;28;20089;-77
2023/05/14 12:28:32;;;;;;;3.00;2.80;;;;;;;;;;5008495;28;20475;-77
2023/05/14 12:31:02;;;;;;;3.33;3.03;;;;;;;;;;5011250;28;20065;-78
2023/05/14 12:33:29;;;;;;;3.40;3.10;;;;;;;;;;4996918;28;20085;-80
2023/05/14 12:36:00;;;;;;;3.67;2.88;;;;;;;;;;5018469;28;20137;-79
2023/05/14 12:38:40;;;;;;;4.95;2.90;;;;;;;;;;5025166;28;20046;-79
2023/05/14 12:41:06;;;;;;;3.40;3.10;;;;;;;;;;5024391;28;20508;-78
2023/05/14 12:43:33;;;;;;;3.63;3.08;;;;;;;;;;5003186;28;20054;-78
2023/05/14 12:46:00;;;;;;;4.35;3.35;;;;;;;;;;5016434;28;20080;-78
2023/05/14 12:48:26;;;;;;;3.42;3.13;;;;;;;;;;5005589;28;20052;-78
2023/05/14 12:50:53;;;;;;;3.15;2.95;;;;;;;;;;5005238;28;20084;-79
2023/05/14 12:53:20;;;;;;;3.42;3.03;;;;;;;;;;5023039;28;20140;-78
2023/05/14 12:55:48;;;;;;;2.80;2.60;;;;;;;;;;5005138;28;20057;-79
2023/05/14 12:58:15;;;;;;;3.25;2.90;;;;;;;;;;4999558;28;20091;-78
2023/05/14 13:00:42;;;;;;;3.40;2.53;;;;;;;;;;5023237;28;20049;-79
2023/05/14 13:03:08;;;;;;;3.10;2.50;;;;;;;;;;5006583;28;20293;-79
2023/05/14 13:05:35;;;;;;;3.25;2.95;;;;;;;;;;5000849;28;20052;-79
2023/05/14 13:08:02;;;;;;;3.65;3.00;;;;;;;;;;4987642;28;20061;-79
2023/05/14 13:10:29;;;;;;;3.28;2.78;;;;;;;;;;4996443;28;20433;-79
2023/05/14 13:12:57;;;;;;;3.53;3.22;;;;;;;;;;4986894;28;20054;-79
2023/05/14 13:15:23;;;;;;;3.75;3.10;;;;;;;;;;5001738;28;20132;-77
2023/05/14 13:17:50;;;;;;;3.45;2.90;;;;;;;;;;5021604;28;20050;-79
2023/05/14 13:20:17;;;;;;;2.92;2.72;;;;;;;;;;5026582;28;20041;-80
2023/05/14 13:22:44;;;;;;;4.47;3.13;;;;;;;;;;5008222;28;20048;-79
2023/05/14 13:25:11;;;;;;;3.20;2.90;;;;;;;;;;5005940;28;20045;-78
2023/05/14 13:27:37;;;;;;;3.78;3.10;;;;;;;;;;5014535;28;20133;-77
2023/05/14 13:30:05;;;;;;;3.30;3.00;;;;;;;;;;5009864;28;20046;-77
2023/05/14 13:32:32;;;;;;;2.47;2.28;;;;;;;;;;4993608;28;20048;-77
2023/05/14 13:34:59;;;;;;;3.10;2.80;;;;;;;;;;4988947;28;20145;-78
2023/05/14 13:37:25;;;;;;;3.03;2.75;;;;;;;;;;4990280;28;20054;-80
2023/05/14 13:39:52;;;;;;;3.05;2.80;;;;;;;;;;5000584;28;20054;-80
2023/05/14 13:42:19;;;;;;;3.95;3.00;;;;;;;;;;5015029;28;20060;-78
2023/05/14 13:44:45;;;;;;;4.55;2.92;;;;;;;;;;5011701;28;20061;-76
2023/05/14 13:47:12;;;;;;;3.30;3.00;;;;;;;;;;5010755;28;20076;-77
2023/05/14 13:49:39;;;;;;;3.20;2.97;;;;;;;;;;4994462;28;20113;-77
2023/05/14 13:52:06;;;;;;;3.90;3.47;;;;;;;;;;5011361;28;20053;-77
2023/05/14 13:54:33;;;;;;;3.00;2.80;;;;;;;;;;5006657;28;20081;-77
2023/05/14 13:57:00;;;;;;;3.88;3.00;;;;;;;;;;5012368;28;20054;-77
2023/05/14 13:59:26;;;;;;;3.35;3.05;;;;;;;;;;4970655;28;20058;-75
2023/05/14 14:01:55;;;;;;;4.03;3.30;;;;;;;;;;4990784;28;20054;-75
2023/05/14 14:04:24;;;;;;;2.95;2.63;;;;;;;;;;4995393;28;20119;-76
2023/05/14 14:06:51;;;;;;;3.22;2.92;;;;;;;;;;5010247;28;20084;-75
2023/05/14 14:09:18;;;;;;;2.33;2.13;;;;;;;;;;4994226;28;20058;-75
2023/05/14 14:11:44;;;;;;;2.75;2.45;;;;;;;;;;5010520;28;20053;-75
2023/05/14 14:14:11;;;;;;;3.17;2.70;;;;;;;;;;4992978;28;20049;-75
2023/05/14 14:16:38;;;;;;;2.22;2.03;;;;;;;;;;5009350;28;20153;-75
2023/05/14 14:19:08;;;;;;;2.17;1.98;;;;;;;;;;5009932;28;20542;-76
2023/05/14 14:21:38;;;;;;;3.30;2.40;;;;;;;;;;4982651;28;20054;-75
2023/05/14 14:24:05;;;;;;;2.25;2.05;;;;;;;;;;5003523;28;20062;-72
2023/05/14 14:26:32;;;;;;;2.30;2.10;;;;;;;;;;5010242;28;20111;-72
2023/05/14 14:28:59;;;;;;;2.53;2.33;;;;;;;;;;5010135;28;20057;-73
2023/05/14 14:31:26;;;;;;;1.90;1.80;;;;;;;;;;5011510;28;20053;-73
2023/05/14 14:33:53;;;;;;;2.50;2.30;;;;;;;;;;5009944;28;20092;-73
2023/05/14 14:36:19;;;;;;;3.08;2.63;;;;;;;;;;5010046;28;20069;-73
2023/05/14 14:38:46;;;;;;;3.20;2.90;;;;;;;;;;5009477;28;20430;-73